sensor_id;sensor_type;location;lat;lon;timestamp;P1;durP1;ratioP1;P2;durP2;ratioP2
44189;SDS011;29856;52.144;5.430;2022-08-25T00:01:33;8.55;;;6.53;;
44189;SDS011;29856;52.144;5.430;2022-08-25T00:04:02;7.28;;;6.40;;
44189;SDS011;29856;52.144;5.430;2022-08-25T00:06:30;6.78;;;5.05;;
44189;SDS011;29856;52.144;5.430;2022-08-25T00:08:56;6.10;;;5.43;;
44189;SDS011;29856;52.144;5.430;2022-08-25T00:11:22;9.00;;;5.72;;
44189;SDS011;29856;52.144;5.430;2022-08-25T00:13:49;10.13;;;6.70;;
44189;SDS011;29856;52.144;5.430;2022-08-25T00:16:17;11.38;;;6.35;;
44189;SDS011;29856;52.144;5.430;2022-08-25T00:18:46;11.00;;;6.10;;
44189;SDS011;29856;52.144;5.430;2022-08-25T00:21:14;6.90;;;6.05;;
44189;SDS011;29856;52.144;5.430;2022-08-25T00:23:41;7.70;;;6.90;;
44189;SDS011;29856;52.144;5.430;2022-08-25T00:26:07;8.65;;;6.70;;
44189;SDS011;29856;52.144;5.430;2022-08-25T00:28:34;9.10;;;6.25;;
44189;SDS011;29856;52.144;5.430;2022-08-25T00:31:00;8.30;;;7.40;;
44189;SDS011;29856;52.144;5.430;2022-08-25T00:33:27;8.68;;;6.50;;
44189;SDS011;29856;52.144;5.430;2022-08-25T00:35:53;8.70;;;6.60;;
44189;SDS011;29856;52.144;5.430;2022-08-25T00:38:19;7.53;;;6.05;;
44189;SDS011;29856;52.144;5.430;2022-08-25T00:40:45;8.00;;;6.85;;
44189;SDS011;29856;52.144;5.430;2022-08-25T00:43:11;9.57;;;6.93;;
44189;SDS011;29856;52.144;5.430;2022-08-25T00:45:37;7.18;;;6.25;;
44189;SDS011;29856;52.144;5.430;2022-08-25T00:48:03;8.15;;;7.00;;
44189;SDS011;29856;52.144;5.430;2022-08-25T00:50:30;9.63;;;6.68;;
44189;SDS011;29856;52.144;5.430;2022-08-25T00:52:58;8.00;;;5.97;;
44189;SDS011;29856;52.144;5.430;2022-08-25T00:55:27;12.35;;;7.15;;
44189;SDS011;29856;52.144;5.430;2022-08-25T01:00:26;7.70;;;6.97;;
44189;SDS011;29856;52.144;5.430;2022-08-25T01:02:57;9.48;;;7.05;;
44189;SDS011;29856;52.144;5.430;2022-08-25T01:05:23;8.95;;;6.53;;
44189;SDS011;29856;52.144;5.430;2022-08-25T01:07:50;7.88;;;7.07;;
44189;SDS011;29856;52.144;5.430;2022-08-25T01:10:16;12.52;;;7.47;;
44189;SDS011;29856;52.144;5.430;2022-08-25T01:12:43;9.55;;;6.68;;
44189;SDS011;29856;52.144;5.430;2022-08-25T01:15:09;8.52;;;6.43;;
44189;SDS011;29856;52.144;5.430;2022-08-25T01:17:45;8.40;;;6.82;;
44189;SDS011;29856;52.144;5.430;2022-08-25T01:20:12;8.60;;;7.60;;
44189;SDS011;29856;52.144;5.430;2022-08-25T01:22:39;8.77;;;6.22;;
44189;SDS011;29856;52.144;5.430;2022-08-25T01:25:16;9.30;;;6.97;;
44189;SDS011;29856;52.144;5.430;2022-08-25T01:27:51;8.82;;;6.53;;
44189;SDS011;29856;52.144;5.430;2022-08-25T01:30:16;7.68;;;6.57;;
44189;SDS011;29856;52.144;5.430;2022-08-25T01:32:42;7.68;;;6.15;;
44189;SDS011;29856;52.144;5.430;2022-08-25T01:35:08;9.27;;;7.75;;
44189;SDS011;29856;52.144;5.430;2022-08-25T01:37:34;8.05;;;6.50;;
44189;SDS011;29856;52.144;5.430;2022-08-25T01:39:59;7.85;;;7.07;;
44189;SDS011;29856;52.144;5.430;2022-08-25T01:45:28;8.57;;;7.43;;
44189;SDS011;29856;52.144;5.430;2022-08-25T01:47:53;7.28;;;6.35;;
44189;SDS011;29856;52.144;5.430;2022-08-25T01:50:19;8.63;;;6.10;;
44189;SDS011;29856;52.144;5.430;2022-08-25T01:52:46;7.68;;;6.20;;
44189;SDS011;29856;52.144;5.430;2022-08-25T01:55:32;6.95;;;5.93;;
44189;SDS011;29856;52.144;5.430;2022-08-25T01:57:58;9.50;;;7.65;;
44189;SDS011;29856;52.144;5.430;2022-08-25T02:00:24;8.65;;;6.40;;
44189;SDS011;29856;52.144;5.430;2022-08-25T02:02:49;7.65;;;6.88;;
44189;SDS011;29856;52.144;5.430;2022-08-25T02:05:15;8.52;;;6.50;;
44189;SDS011;29856;52.144;5.430;2022-08-25T02:07:41;12.73;;;6.38;;
44189;SDS011;29856;52.144;5.430;2022-08-25T02:10:08;10.23;;;6.97;;
44189;SDS011;29856;52.144;5.430;2022-08-25T02:12:36;7.22;;;6.53;;
44189;SDS011;29856;52.144;5.430;2022-08-25T02:15:05;7.40;;;6.70;;
44189;SDS011;29856;52.144;5.430;2022-08-25T02:17:33;7.07;;;6.43;;
44189;SDS011;29856;52.144;5.430;2022-08-25T02:19:59;8.00;;;7.10;;
44189;SDS011;29856;52.144;5.430;2022-08-25T02:22:24;7.95;;;5.65;;
44189;SDS011;29856;52.144;5.430;2022-08-25T02:24:50;8.13;;;5.57;;
44189;SDS011;29856;52.144;5.430;2022-08-25T02:27:15;7.03;;;6.20;;
44189;SDS011;29856;52.144;5.430;2022-08-25T02:29:41;7.78;;;5.68;;
44189;SDS011;29856;52.144;5.430;2022-08-25T02:32:06;10.80;;;6.72;;
44189;SDS011;29856;52.144;5.430;2022-08-25T02:34:32;9.40;;;6.70;;
44189;SDS011;29856;52.144;5.430;2022-08-25T02:36:58;8.50;;;7.15;;
44189;SDS011;29856;52.144;5.430;2022-08-25T02:39:23;7.65;;;6.43;;
44189;SDS011;29856;52.144;5.430;2022-08-25T02:41:49;8.23;;;6.68;;
44189;SDS011;29856;52.144;5.430;2022-08-25T02:44:14;8.70;;;6.82;;
44189;SDS011;29856;52.144;5.430;2022-08-25T02:46:40;9.13;;;6.72;;
44189;SDS011;29856;52.144;5.430;2022-08-25T02:49:06;6.57;;;5.97;;
44189;SDS011;29856;52.144;5.430;2022-08-25T02:51:32;7.68;;;6.25;;
44189;SDS011;29856;52.144;5.430;2022-08-25T02:53:58;9.70;;;5.80;;
44189;SDS011;29856;52.144;5.430;2022-08-25T02:56:25;7.18;;;6.25;;
44189;SDS011;29856;52.144;5.430;2022-08-25T02:58:51;8.10;;;6.70;;
44189;SDS011;29856;52.144;5.430;2022-08-25T03:01:16;8.65;;;6.38;;
44189;SDS011;29856;52.144;5.430;2022-08-25T03:03:43;10.77;;;6.38;;
44189;SDS011;29856;52.144;5.430;2022-08-25T03:06:11;7.40;;;6.45;;
44189;SDS011;29856;52.144;5.430;2022-08-25T03:08:38;7.93;;;5.80;;
44189;SDS011;29856;52.144;5.430;2022-08-25T03:11:05;8.35;;;6.38;;
44189;SDS011;29856;52.144;5.430;2022-08-25T03:13:31;5.93;;;5.30;;
44189;SDS011;29856;52.144;5.430;2022-08-25T03:15:57;11.13;;;6.13;;
44189;SDS011;29856;52.144;5.430;2022-08-25T03:18:24;9.48;;;6.30;;
44189;SDS011;29856;52.144;5.430;2022-08-25T03:20:50;5.93;;;5.30;;
44189;SDS011;29856;52.144;5.430;2022-08-25T03:23:15;7.50;;;6.25;;
44189;SDS011;29856;52.144;5.430;2022-08-25T03:25:41;9.00;;;5.65;;
44189;SDS011;29856;52.144;5.430;2022-08-25T03:28:07;6.97;;;5.15;;
44189;SDS011;29856;52.144;5.430;2022-08-25T03:30:32;6.95;;;5.72;;
44189;SDS011;29856;52.144;5.430;2022-08-25T03:32:58;9.68;;;5.95;;
44189;SDS011;29856;52.144;5.430;2022-08-25T03:35:23;11.30;;;5.32;;
44189;SDS011;29856;52.144;5.430;2022-08-25T03:37:49;8.18;;;5.40;;
44189;SDS011;29856;52.144;5.430;2022-08-25T03:40:15;8.85;;;5.32;;
44189;SDS011;29856;52.144;5.430;2022-08-25T03:42:41;7.70;;;5.53;;
44189;SDS011;29856;52.144;5.430;2022-08-25T03:45:08;9.15;;;6.43;;
44189;SDS011;29856;52.144;5.430;2022-08-25T03:47:34;7.43;;;5.22;;
44189;SDS011;29856;52.144;5.430;2022-08-25T03:49:59;7.47;;;5.22;;
44189;SDS011;29856;52.144;5.430;2022-08-25T03:52:25;8.65;;;5.82;;
44189;SDS011;29856;52.144;5.430;2022-08-25T03:54:50;9.75;;;4.75;;
44189;SDS011;29856;52.144;5.430;2022-08-25T03:57:16;7.80;;;5.15;;
44189;SDS011;29856;52.144;5.430;2022-08-25T03:59:41;7.80;;;5.57;;
44189;SDS011;29856;52.144;5.430;2022-08-25T04:02:07;12.48;;;4.85;;
44189;SDS011;29856;52.144;5.430;2022-08-25T04:04:33;5.43;;;4.78;;
44189;SDS011;29856;52.144;5.430;2022-08-25T04:06:58;7.25;;;4.63;;
44189;SDS011;29856;52.144;5.430;2022-08-25T04:09:24;4.78;;;4.35;;
44189;SDS011;29856;52.144;5.430;2022-08-25T04:11:50;7.50;;;4.70;;
44189;SDS011;29856;52.144;5.430;2022-08-25T04:14:16;6.95;;;4.40;;
44189;SDS011;29856;52.144;5.430;2022-08-25T04:16:41;7.72;;;4.10;;
44189;SDS011;29856;52.144;5.430;2022-08-25T04:19:08;8.93;;;4.32;;
44189;SDS011;29856;52.144;5.430;2022-08-25T04:21:34;6.35;;;4.47;;
44189;SDS011;29856;52.144;5.430;2022-08-25T04:24:00;9.43;;;5.13;;
44189;SDS011;29856;52.144;5.430;2022-08-25T04:26:30;10.70;;;5.05;;
44189;SDS011;29856;52.144;5.430;2022-08-25T04:28:59;9.73;;;5.20;;
44189;SDS011;29856;52.144;5.430;2022-08-25T04:31:26;7.72;;;4.53;;
44189;SDS011;29856;52.144;5.430;2022-08-25T04:33:53;7.10;;;4.60;;
44189;SDS011;29856;52.144;5.430;2022-08-25T04:36:19;13.25;;;5.20;;
44189;SDS011;29856;52.144;5.430;2022-08-25T04:38:45;7.80;;;4.95;;
44189;SDS011;29856;52.144;5.430;2022-08-25T04:41:12;10.68;;;4.72;;
44189;SDS011;29856;52.144;5.430;2022-08-25T04:43:40;8.23;;;4.10;;
44189;SDS011;29856;52.144;5.430;2022-08-25T04:46:07;6.13;;;4.35;;
44189;SDS011;29856;52.144;5.430;2022-08-25T04:48:34;7.82;;;4.50;;
44189;SDS011;29856;52.144;5.430;2022-08-25T04:51:03;6.15;;;4.25;;
44189;SDS011;29856;52.144;5.430;2022-08-25T04:53:33;7.80;;;4.65;;
44189;SDS011;29856;52.144;5.430;2022-08-25T04:55:59;10.70;;;4.97;;
44189;SDS011;29856;52.144;5.430;2022-08-25T04:58:25;8.55;;;5.38;;
44189;SDS011;29856;52.144;5.430;2022-08-25T05:00:51;7.75;;;4.85;;
44189;SDS011;29856;52.144;5.430;2022-08-25T05:03:16;6.38;;;4.38;;
44189;SDS011;29856;52.144;5.430;2022-08-25T05:05:42;12.45;;;5.00;;
44189;SDS011;29856;52.144;5.430;2022-08-25T05:08:07;12.95;;;4.45;;
44189;SDS011;29856;52.144;5.430;2022-08-25T05:10:33;8.50;;;4.40;;
44189;SDS011;29856;52.144;5.430;2022-08-25T05:13:02;7.82;;;4.28;;
44189;SDS011;29856;52.144;5.430;2022-08-25T05:15:27;6.47;;;4.32;;
44189;SDS011;29856;52.144;5.430;2022-08-25T05:17:53;6.22;;;4.38;;
44189;SDS011;29856;52.144;5.430;2022-08-25T05:20:19;7.43;;;4.35;;
44189;SDS011;29856;52.144;5.430;2022-08-25T05:22:45;9.43;;;4.25;;
44189;SDS011;29856;52.144;5.430;2022-08-25T05:25:11;6.43;;;4.75;;
44189;SDS011;29856;52.144;5.430;2022-08-25T05:27:38;9.70;;;4.15;;
44189;SDS011;29856;52.144;5.430;2022-08-25T05:30:03;10.05;;;4.68;;
44189;SDS011;29856;52.144;5.430;2022-08-25T05:32:29;6.50;;;4.25;;
44189;SDS011;29856;52.144;5.430;2022-08-25T05:34:54;8.55;;;3.92;;
44189;SDS011;29856;52.144;5.430;2022-08-25T05:37:20;7.55;;;4.18;;
44189;SDS011;29856;52.144;5.430;2022-08-25T05:39:45;8.68;;;3.83;;
44189;SDS011;29856;52.144;5.430;2022-08-25T05:42:11;10.70;;;4.40;;
44189;SDS011;29856;52.144;5.430;2022-08-25T05:44:36;9.52;;;4.20;;
44189;SDS011;29856;52.144;5.430;2022-08-25T05:47:02;8.13;;;3.60;;
44189;SDS011;29856;52.144;5.430;2022-08-25T05:49:27;6.72;;;3.85;;
44189;SDS011;29856;52.144;5.430;2022-08-25T05:51:53;9.95;;;4.07;;
44189;SDS011;29856;52.144;5.430;2022-08-25T05:54:18;6.65;;;3.90;;
44189;SDS011;29856;52.144;5.430;2022-08-25T05:56:44;8.85;;;3.97;;
44189;SDS011;29856;52.144;5.430;2022-08-25T05:59:09;8.88;;;3.70;;
44189;SDS011;29856;52.144;5.430;2022-08-25T06:01:34;7.47;;;3.67;;
44189;SDS011;29856;52.144;5.430;2022-08-25T06:04:00;6.57;;;4.00;;
44189;SDS011;29856;52.144;5.430;2022-08-25T06:06:25;7.90;;;4.03;;
44189;SDS011;29856;52.144;5.430;2022-08-25T06:08:51;7.57;;;3.95;;
44189;SDS011;29856;52.144;5.430;2022-08-25T06:11:16;7.93;;;4.18;;
44189;SDS011;29856;52.144;5.430;2022-08-25T06:13:42;6.05;;;3.80;;
44189;SDS011;29856;52.144;5.430;2022-08-25T06:16:07;6.85;;;3.92;;
44189;SDS011;29856;52.144;5.430;2022-08-25T06:18:33;10.85;;;4.13;;
44189;SDS011;29856;52.144;5.430;2022-08-25T06:20:58;8.48;;;4.47;;
44189;SDS011;29856;52.144;5.430;2022-08-25T06:35:12;14.18;;;4.50;;
44189;SDS011;29856;52.144;5.430;2022-08-25T06:37:39;9.18;;;4.57;;
44189;SDS011;29856;52.144;5.430;2022-08-25T06:40:05;7.88;;;4.93;;
44189;SDS011;29856;52.144;5.430;2022-08-25T06:42:31;12.45;;;4.43;;
44189;SDS011;29856;52.144;5.430;2022-08-25T06:44:57;11.02;;;4.30;;
44189;SDS011;29856;52.144;5.430;2022-08-25T06:47:22;9.75;;;4.47;;
44189;SDS011;29856;52.144;5.430;2022-08-25T06:49:48;9.93;;;4.03;;
44189;SDS011;29856;52.144;5.430;2022-08-25T06:52:13;12.55;;;4.57;;
44189;SDS011;29856;52.144;5.430;2022-08-25T06:54:39;10.20;;;4.38;;
44189;SDS011;29856;52.144;5.430;2022-08-25T06:57:05;10.40;;;3.80;;
44189;SDS011;29856;52.144;5.430;2022-08-25T06:59:32;9.52;;;4.20;;
44189;SDS011;29856;52.144;5.430;2022-08-25T07:01:59;10.35;;;4.32;;
44189;SDS011;29856;52.144;5.430;2022-08-25T07:04:25;16.42;;;4.93;;
44189;SDS011;29856;52.144;5.430;2022-08-25T07:06:51;15.20;;;4.68;;
44189;SDS011;29856;52.144;5.430;2022-08-25T07:09:16;10.07;;;5.10;;
44189;SDS011;29856;52.144;5.430;2022-08-25T07:11:42;12.10;;;4.13;;
44189;SDS011;29856;52.144;5.430;2022-08-25T07:14:10;10.55;;;3.95;;
44189;SDS011;29856;52.144;5.430;2022-08-25T07:16:37;9.65;;;3.80;;
44189;SDS011;29856;52.144;5.430;2022-08-25T07:19:04;12.88;;;4.38;;
44189;SDS011;29856;52.144;5.430;2022-08-25T07:21:30;11.65;;;4.25;;
44189;SDS011;29856;52.144;5.430;2022-08-25T07:23:57;17.60;;;4.25;;
44189;SDS011;29856;52.144;5.430;2022-08-25T07:26:24;12.70;;;4.00;;
44189;SDS011;29856;52.144;5.430;2022-08-25T07:28:51;8.88;;;3.75;;
44189;SDS011;29856;52.144;5.430;2022-08-25T07:31:16;9.77;;;3.30;;
44189;SDS011;29856;52.144;5.430;2022-08-25T07:33:42;10.23;;;3.67;;
44189;SDS011;29856;52.144;5.430;2022-08-25T07:36:08;5.97;;;2.95;;
44189;SDS011;29856;52.144;5.430;2022-08-25T07:38:33;9.07;;;3.60;;
44189;SDS011;29856;52.144;5.430;2022-08-25T07:41:02;10.55;;;3.40;;
44189;SDS011;29856;52.144;5.430;2022-08-25T07:43:27;6.43;;;2.40;;
44189;SDS011;29856;52.144;5.430;2022-08-25T07:45:53;6.75;;;3.08;;
44189;SDS011;29856;52.144;5.430;2022-08-25T07:48:19;8.15;;;3.00;;
44189;SDS011;29856;52.144;5.430;2022-08-25T07:50:46;11.52;;;2.90;;
44189;SDS011;29856;52.144;5.430;2022-08-25T07:53:12;13.82;;;3.20;;
44189;SDS011;29856;52.144;5.430;2022-08-25T07:55:40;11.10;;;3.28;;
44189;SDS011;29856;52.144;5.430;2022-08-25T07:58:07;7.95;;;2.83;;
44189;SDS011;29856;52.144;5.430;2022-08-25T08:00:33;9.55;;;3.00;;
44189;SDS011;29856;52.144;5.430;2022-08-25T08:03:01;5.45;;;2.80;;
44189;SDS011;29856;52.144;5.430;2022-08-25T08:05:30;4.88;;;3.28;;
44189;SDS011;29856;52.144;5.430;2022-08-25T08:07:56;8.60;;;3.20;;
44189;SDS011;29856;52.144;5.430;2022-08-25T08:10:22;10.82;;;3.75;;
44189;SDS011;29856;52.144;5.430;2022-08-25T08:12:48;5.93;;;3.22;;
44189;SDS011;29856;52.144;5.430;2022-08-25T08:15:14;6.53;;;3.15;;
44189;SDS011;29856;52.144;5.430;2022-08-25T08:17:39;7.68;;;2.78;;
44189;SDS011;29856;52.144;5.430;2022-08-25T08:20:05;8.57;;;2.70;;
44189;SDS011;29856;52.144;5.430;2022-08-25T08:22:32;7.85;;;3.38;;
44189;SDS011;29856;52.144;5.430;2022-08-25T08:24:59;7.32;;;3.53;;
44189;SDS011;29856;52.144;5.430;2022-08-25T08:27:25;5.95;;;3.03;;
44189;SDS011;29856;52.144;5.430;2022-08-25T08:29:50;7.20;;;3.30;;
44189;SDS011;29856;52.144;5.430;2022-08-25T08:32:16;8.50;;;3.53;;
44189;SDS011;29856;52.144;5.430;2022-08-25T08:34:42;7.70;;;3.05;;
44189;SDS011;29856;52.144;5.430;2022-08-25T08:37:07;5.78;;;3.00;;
44189;SDS011;29856;52.144;5.430;2022-08-25T08:39:33;8.80;;;3.63;;
44189;SDS011;29856;52.144;5.430;2022-08-25T08:42:06;11.10;;;3.47;;
44189;SDS011;29856;52.144;5.430;2022-08-25T08:44:53;7.40;;;3.10;;
44189;SDS011;29856;52.144;5.430;2022-08-25T08:47:47;7.50;;;3.10;;
44189;SDS011;29856;52.144;5.430;2022-08-25T08:50:31;11.65;;;3.17;;
44189;SDS011;29856;52.144;5.430;2022-08-25T08:53:08;13.48;;;3.45;;
44189;SDS011;29856;52.144;5.430;2022-08-25T08:55:44;7.43;;;3.17;;
44189;SDS011;29856;52.144;5.430;2022-08-25T09:00:56;8.70;;;3.45;;
44189;SDS011;29856;52.144;5.430;2022-08-25T09:03:35;8.77;;;3.45;;
44189;SDS011;29856;52.144;5.430;2022-08-25T09:06:23;7.35;;;2.70;;
44189;SDS011;29856;52.144;5.430;2022-08-25T09:08:48;9.15;;;3.17;;
44189;SDS011;29856;52.144;5.430;2022-08-25T09:11:22;7.90;;;3.28;;
44189;SDS011;29856;52.144;5.430;2022-08-25T09:14:23;5.47;;;2.88;;
44189;SDS011;29856;52.144;5.430;2022-08-25T09:17:20;7.50;;;3.10;;
44189;SDS011;29856;52.144;5.430;2022-08-25T09:20:21;4.65;;;3.22;;
44189;SDS011;29856;52.144;5.430;2022-08-25T09:25:26;8.40;;;2.95;;
44189;SDS011;29856;52.144;5.430;2022-08-25T09:28:06;4.15;;;2.55;;
44189;SDS011;29856;52.144;5.430;2022-08-25T09:30:52;5.97;;;3.10;;
44189;SDS011;29856;52.144;5.430;2022-08-25T09:33:22;5.10;;;2.38;;
44189;SDS011;29856;52.144;5.430;2022-08-25T09:35:50;11.35;;;3.15;;
44189;SDS011;29856;52.144;5.430;2022-08-25T09:38:18;5.90;;;2.78;;
44189;SDS011;29856;52.144;5.430;2022-08-25T09:40:45;7.70;;;2.60;;
44189;SDS011;29856;52.144;5.430;2022-08-25T09:43:20;6.93;;;2.50;;
44189;SDS011;29856;52.144;5.430;2022-08-25T09:48:41;7.97;;;2.78;;
44189;SDS011;29856;52.144;5.430;2022-08-25T09:56:15;8.38;;;3.03;;
44189;SDS011;29856;52.144;5.430;2022-08-25T09:58:45;7.30;;;2.55;;
44189;SDS011;29856;52.144;5.430;2022-08-25T10:01:15;10.90;;;2.88;;
44189;SDS011;29856;52.144;5.430;2022-08-25T10:06:23;4.78;;;2.38;;
44189;SDS011;29856;52.144;5.430;2022-08-25T10:08:55;4.95;;;2.50;;
44189;SDS011;29856;52.144;5.430;2022-08-25T10:11:31;8.20;;;2.47;;
44189;SDS011;29856;52.144;5.430;2022-08-25T10:14:14;5.67;;;2.60;;
44189;SDS011;29856;52.144;5.430;2022-08-25T10:16:41;4.22;;;2.45;;
44189;SDS011;29856;52.144;5.430;2022-08-25T10:19:08;4.00;;;2.60;;
44189;SDS011;29856;52.144;5.430;2022-08-25T10:21:35;7.65;;;2.40;;
44189;SDS011;29856;52.144;5.430;2022-08-25T10:24:02;12.57;;;2.58;;
44189;SDS011;29856;52.144;5.430;2022-08-25T10:31:59;7.93;;;2.60;;
44189;SDS011;29856;52.144;5.430;2022-08-25T10:34:38;7.95;;;2.65;;
44189;SDS011;29856;52.144;5.430;2022-08-25T10:43:05;3.75;;;2.00;;
44189;SDS011;29856;52.144;5.430;2022-08-25T10:45:44;5.60;;;2.72;;
44189;SDS011;29856;52.144;5.430;2022-08-25T10:48:30;5.00;;;2.65;;
44189;SDS011;29856;52.144;5.430;2022-08-25T10:54:05;6.78;;;2.30;;
44189;SDS011;29856;52.144;5.430;2022-08-25T10:56:54;4.90;;;2.13;;
44189;SDS011;29856;52.144;5.430;2022-08-25T10:59:57;8.73;;;1.70;;
44189;SDS011;29856;52.144;5.430;2022-08-25T11:05:02;4.50;;;2.20;;
44189;SDS011;29856;52.144;5.430;2022-08-25T11:10:11;7.07;;;2.00;;
44189;SDS011;29856;52.144;5.430;2022-08-25T11:15:40;3.92;;;1.92;;
44189;SDS011;29856;52.144;5.430;2022-08-25T11:18:22;3.40;;;2.15;;
44189;SDS011;29856;52.144;5.430;2022-08-25T11:20:54;5.80;;;2.38;;
44189;SDS011;29856;52.144;5.430;2022-08-25T11:26:11;4.65;;;2.00;;
44189;SDS011;29856;52.144;5.430;2022-08-25T11:28:50;4.75;;;2.00;;
44189;SDS011;29856;52.144;5.430;2022-08-25T11:31:22;5.82;;;2.40;;
44189;SDS011;29856;52.144;5.430;2022-08-25T11:33:50;6.85;;;2.05;;
44189;SDS011;29856;52.144;5.430;2022-08-25T11:41:55;3.03;;;1.80;;
44189;SDS011;29856;52.144;5.430;2022-08-25T11:44:40;8.57;;;2.97;;
44189;SDS011;29856;52.144;5.430;2022-08-25T11:47:18;4.37;;;1.90;;
44189;SDS011;29856;52.144;5.430;2022-08-25T11:49:57;5.35;;;1.90;;
44189;SDS011;29856;52.144;5.430;2022-08-25T11:55:04;2.88;;;1.92;;
44189;SDS011;29856;52.144;5.430;2022-08-25T11:57:42;4.10;;;2.00;;
44189;SDS011;29856;52.144;5.430;2022-08-25T12:00:11;2.85;;;1.80;;
44189;SDS011;29856;52.144;5.430;2022-08-25T12:02:44;5.32;;;2.10;;
44189;SDS011;29856;52.144;5.430;2022-08-25T12:10:20;5.53;;;2.10;;
44189;SDS011;29856;52.144;5.430;2022-08-25T12:15:25;4.03;;;1.85;;
44189;SDS011;29856;52.144;5.430;2022-08-25T12:23:39;3.65;;;2.28;;
44189;SDS011;29856;52.144;5.430;2022-08-25T12:34:21;4.22;;;1.77;;
44189;SDS011;29856;52.144;5.430;2022-08-25T12:37:01;3.00;;;1.67;;
44189;SDS011;29856;52.144;5.430;2022-08-25T12:39:35;9.43;;;2.10;;
44189;SDS011;29856;52.144;5.430;2022-08-25T12:42:11;5.82;;;1.67;;
44189;SDS011;29856;52.144;5.430;2022-08-25T12:47:33;3.83;;;1.75;;
44189;SDS011;29856;52.144;5.430;2022-08-25T12:52:52;3.30;;;1.90;;
44189;SDS011;29856;52.144;5.430;2022-08-25T12:55:19;7.30;;;2.10;;
44189;SDS011;29856;52.144;5.430;2022-08-25T12:57:49;5.38;;;1.80;;
44189;SDS011;29856;52.144;5.430;2022-08-25T13:00:28;3.28;;;1.90;;
44189;SDS011;29856;52.144;5.430;2022-08-25T13:03:48;6.10;;;2.10;;
44189;SDS011;29856;52.144;5.430;2022-08-25T13:14:16;6.00;;;1.95;;
44189;SDS011;29856;52.144;5.430;2022-08-25T13:16:58;3.38;;;1.88;;
44189;SDS011;29856;52.144;5.430;2022-08-25T13:19:24;6.78;;;2.08;;
44189;SDS011;29856;52.144;5.430;2022-08-25T13:21:51;6.80;;;2.15;;
44189;SDS011;29856;52.144;5.430;2022-08-25T13:24:23;6.65;;;2.00;;
44189;SDS011;29856;52.144;5.430;2022-08-25T13:26:53;4.78;;;1.83;;
44189;SDS011;29856;52.144;5.430;2022-08-25T13:29:22;9.18;;;2.40;;
44189;SDS011;29856;52.144;5.430;2022-08-25T13:31:57;2.78;;;2.10;;
44189;SDS011;29856;52.144;5.430;2022-08-25T13:34:26;5.50;;;2.10;;
44189;SDS011;29856;52.144;5.430;2022-08-25T13:36:53;5.22;;;1.80;;
44189;SDS011;29856;52.144;5.430;2022-08-25T13:39:20;3.17;;;2.22;;
44189;SDS011;29856;52.144;5.430;2022-08-25T13:41:51;8.05;;;2.83;;
44189;SDS011;29856;52.144;5.430;2022-08-25T13:44:19;5.60;;;1.90;;
44189;SDS011;29856;52.144;5.430;2022-08-25T13:46:46;5.07;;;2.10;;
44189;SDS011;29856;52.144;5.430;2022-08-25T13:49:28;6.18;;;2.20;;
44189;SDS011;29856;52.144;5.430;2022-08-25T13:51:53;3.90;;;1.98;;
44189;SDS011;29856;52.144;5.430;2022-08-25T13:54:24;2.85;;;1.63;;
44189;SDS011;29856;52.144;5.430;2022-08-25T13:56:53;5.78;;;2.15;;
44189;SDS011;29856;52.144;5.430;2022-08-25T13:59:23;2.67;;;2.00;;
44189;SDS011;29856;52.144;5.430;2022-08-25T14:01:54;4.38;;;2.00;;
44189;SDS011;29856;52.144;5.430;2022-08-25T14:04:30;2.00;;;1.80;;
44189;SDS011;29856;52.144;5.430;2022-08-25T14:07:24;3.78;;;2.03;;
44189;SDS011;29856;52.144;5.430;2022-08-25T14:09:54;3.80;;;2.30;;
44189;SDS011;29856;52.144;5.430;2022-08-25T14:15:40;5.63;;;1.83;;
44189;SDS011;29856;52.144;5.430;2022-08-25T14:17:47;6.43;;;2.40;;
44189;SDS011;29856;52.144;5.430;2022-08-25T14:20:25;5.80;;;2.20;;
44189;SDS011;29856;52.144;5.430;2022-08-25T14:22:56;3.88;;;2.30;;
44189;SDS011;29856;52.144;5.430;2022-08-25T14:25:24;8.98;;;2.05;;
44189;SDS011;29856;52.144;5.430;2022-08-25T14:27:59;3.28;;;2.00;;
44189;SDS011;29856;52.144;5.430;2022-08-25T14:32:51;5.97;;;2.05;;
44189;SDS011;29856;52.144;5.430;2022-08-25T14:35:17;7.13;;;2.25;;
44189;SDS011;29856;52.144;5.430;2022-08-25T14:37:43;4.93;;;2.10;;
44189;SDS011;29856;52.144;5.430;2022-08-25T14:40:09;5.20;;;1.95;;
44189;SDS011;29856;52.144;5.430;2022-08-25T14:42:36;3.80;;;1.92;;
44189;SDS011;29856;52.144;5.430;2022-08-25T14:45:01;5.82;;;1.92;;
44189;SDS011;29856;52.144;5.430;2022-08-25T14:47:27;4.25;;;1.95;;
44189;SDS011;29856;52.144;5.430;2022-08-25T14:49:53;6.80;;;2.00;;
44189;SDS011;29856;52.144;5.430;2022-08-25T14:52:20;6.47;;;2.17;;
44189;SDS011;29856;52.144;5.430;2022-08-25T14:54:50;5.30;;;2.08;;
44189;SDS011;29856;52.144;5.430;2022-08-25T14:57:15;3.10;;;1.92;;
44189;SDS011;29856;52.144;5.430;2022-08-25T14:59:41;4.10;;;2.38;;
44189;SDS011;29856;52.144;5.430;2022-08-25T15:02:06;4.47;;;1.92;;
44189;SDS011;29856;52.144;5.430;2022-08-25T15:04:32;3.70;;;2.20;;
44189;SDS011;29856;52.144;5.430;2022-08-25T15:07:00;5.78;;;1.85;;
44189;SDS011;29856;52.144;5.430;2022-08-25T15:09:26;4.22;;;1.90;;
44189;SDS011;29856;52.144;5.430;2022-08-25T15:11:55;5.07;;;2.38;;
44189;SDS011;29856;52.144;5.430;2022-08-25T15:14:22;4.40;;;1.95;;
44189;SDS011;29856;52.144;5.430;2022-08-25T15:16:52;2.42;;;1.90;;
44189;SDS011;29856;52.144;5.430;2022-08-25T15:19:21;2.78;;;1.77;;
44189;SDS011;29856;52.144;5.430;2022-08-25T15:21:48;6.35;;;1.83;;
44189;SDS011;29856;52.144;5.430;2022-08-25T15:24:15;5.65;;;2.15;;
44189;SDS011;29856;52.144;5.430;2022-08-25T15:26:45;6.47;;;5.72;;
44189;SDS011;29856;52.144;5.430;2022-08-25T15:29:19;9.60;;;7.20;;
44189;SDS011;29856;52.144;5.430;2022-08-25T15:31:45;13.23;;;5.88;;
44189;SDS011;29856;52.144;5.430;2022-08-25T15:34:11;48.28;;;33.72;;
44189;SDS011;29856;52.144;5.430;2022-08-25T15:36:37;27.15;;;21.85;;
44189;SDS011;29856;52.144;5.430;2022-08-25T15:39:03;42.63;;;28.90;;
44189;SDS011;29856;52.144;5.430;2022-08-25T15:41:29;28.08;;;18.08;;
44189;SDS011;29856;52.144;5.430;2022-08-25T15:43:55;20.42;;;10.52;;
44189;SDS011;29856;52.144;5.430;2022-08-25T15:46:21;41.42;;;29.63;;
44189;SDS011;29856;52.144;5.430;2022-08-25T15:48:48;11.77;;;9.13;;
44189;SDS011;29856;52.144;5.430;2022-08-25T15:51:14;11.43;;;5.32;;
44189;SDS011;29856;52.144;5.430;2022-08-25T15:53:40;4.70;;;3.35;;
44189;SDS011;29856;52.144;5.430;2022-08-25T15:56:06;4.95;;;3.05;;
44189;SDS011;29856;52.144;5.430;2022-08-25T15:58:31;6.88;;;2.80;;
44189;SDS011;29856;52.144;5.430;2022-08-25T16:00:57;6.63;;;2.75;;
44189;SDS011;29856;52.144;5.430;2022-08-25T16:03:22;5.05;;;2.67;;
44189;SDS011;29856;52.144;5.430;2022-08-25T16:05:48;5.20;;;2.58;;
44189;SDS011;29856;52.144;5.430;2022-08-25T16:08:13;5.80;;;5.15;;
44189;SDS011;29856;52.144;5.430;2022-08-25T16:10:40;12.85;;;5.30;;
44189;SDS011;29856;52.144;5.430;2022-08-25T16:13:06;32.78;;;14.20;;
44189;SDS011;29856;52.144;5.430;2022-08-25T16:15:33;26.13;;;15.38;;
44189;SDS011;29856;52.144;5.430;2022-08-25T16:18:00;9.70;;;5.07;;
44189;SDS011;29856;52.144;5.430;2022-08-25T16:20:27;5.55;;;2.88;;
44189;SDS011;29856;52.144;5.430;2022-08-25T16:22:53;5.60;;;2.50;;
44189;SDS011;29856;52.144;5.430;2022-08-25T16:25:19;2.47;;;1.92;;
44189;SDS011;29856;52.144;5.430;2022-08-25T16:27:45;3.42;;;2.53;;
44189;SDS011;29856;52.144;5.430;2022-08-25T16:30:11;4.38;;;2.55;;
44189;SDS011;29856;52.144;5.430;2022-08-25T16:32:38;5.60;;;2.30;;
44189;SDS011;29856;52.144;5.430;2022-08-25T16:35:04;4.65;;;2.20;;
44189;SDS011;29856;52.144;5.430;2022-08-25T16:37:31;8.52;;;1.90;;
44189;SDS011;29856;52.144;5.430;2022-08-25T16:39:58;7.82;;;2.15;;
44189;SDS011;29856;52.144;5.430;2022-08-25T16:42:23;3.72;;;2.17;;